Time;durP1;ratioP1;P1;durP2;ratioP2;P2;SDS_P1;SDS_P2;PMS_P1;PMS_P2;Temp;Humidity;BMP_temperature;BMP_pressure;BME280_temperature;BME280_humidity;BME280_pressure;Samples;Min_cycle;Max_cycle;Signal;HPM_P1;HPM_P2
2022/01/10 00:02:07;;;;;;;2.92;1.40;;;;;;;-145.06;0.00;60892.56;4856988;28;20029;-87
2022/01/10 00:04:46;;;;;;;3.45;1.80;;;;;;;-145.06;0.00;60892.56;4872079;28;20029;-88
2022/01/10 00:07:25;;;;;;;2.72;1.63;;;;;;;-145.06;0.00;60892.56;4855804;28;20033;-88
2022/01/10 00:10:05;;;;;;;2.67;1.60;;;;;;;-145.06;0.00;60892.56;4845415;28;20029;-88
2022/01/10 00:12:45;;;;;;;3.10;1.60;;;;;;;-145.06;0.00;60892.56;4854276;28;20276;-89
2022/01/10 00:15:24;;;;;;;1.77;1.20;;;;;;;-145.06;0.00;60892.56;4858518;28;20460;-89
2022/01/10 00:18:03;;;;;;;2.83;1.35;;;;;;;-145.06;0.00;60892.56;4858458;28;20116;-89
2022/01/10 00:20:42;;;;;;;2.60;1.50;;;;;;;-145.06;0.00;60892.56;4856971;28;20116;-88
2022/01/10 00:23:20;;;;;;;2.45;1.40;;;;;;;-145.06;0.00;60892.56;4856194;28;20272;-87
2022/01/10 00:25:59;;;;;;;1.25;1.10;;;;;;;4.19;0.00;60892.56;4856399;28;20616;-88
2022/01/10 00:28:38;;;;;;;2.08;1.33;;;;;;;-145.06;0.00;60892.56;4838611;28;20037;-88
2022/01/10 00:31:18;;;;;;;3.05;1.60;;;;;;;187.52;0.00;60892.56;4857791;28;20041;-88
2022/01/10 00:33:57;;;;;;;2.33;1.27;;;;;;;-145.06;0.00;60892.56;4856662;28;20033;-89
2022/01/10 00:36:36;;;;;;;2.20;1.17;;;;;;;-145.06;0.00;60892.56;4855230;28;20037;-89
2022/01/10 00:39:15;;;;;;;2.58;1.30;;;;;;;-145.06;0.00;60892.56;4855757;28;20029;-88
2022/01/10 00:41:58;;;;;;;1.83;1.02;;;;;;;187.52;0.00;60892.56;4855265;28;20530;-88
2022/01/10 00:44:44;;;;;;;2.20;1.15;;;;;;;-145.06;0.00;60892.56;4858346;28;20692;-88
2022/01/10 00:47:23;;;;;;;2.65;1.10;;;;;;;-145.06;0.00;60892.56;4851942;28;20018;-88
2022/01/10 00:50:03;;;;;;;1.42;1.08;;;;;;;-145.06;0.00;60892.56;4857312;28;20041;-89
2022/01/10 00:52:42;;;;;;;2.47;1.00;;;;;;;2.81;0.00;60892.56;4854757;28;20037;-88
2022/01/10 00:55:22;;;;;;;2.28;1.17;;;;;;;5.49;0.00;60892.56;4857621;28;20033;-88
2022/01/10 00:58:01;;;;;;;1.10;1.00;;;;;;;2.72;0.00;60892.56;4855846;28;20038;-87
2022/01/10 01:00:40;;;;;;;1.15;1.05;;;;;;;2.71;0.00;60892.56;4856004;28;20029;-87
2022/01/10 01:03:19;;;;;;;1.50;0.88;;;;;;;187.52;0.00;60892.56;4856338;28;20491;-87
2022/01/10 01:05:58;;;;;;;1.60;1.10;;;;;;;-145.06;0.00;60892.56;4860755;28;20042;-86
2022/01/10 01:08:39;;;;;;;2.60;1.10;;;;;;;-145.06;0.00;60892.56;4862195;28;20029;-87
2022/01/10 01:11:55;;;;;;;2.15;1.00;;;;;;;2.89;0.00;60892.56;4863570;28;20033;-87
2022/01/10 01:20:28;;;;;;;1.45;0.80;;;;;;;-145.06;0.00;60892.56;4853570;28;20033;-85
2022/01/10 01:26:14;;;;;;;2.28;0.93;;;;;;;2.48;0.00;60892.56;4855263;28;20440;-86
2022/01/10 01:28:53;;;;;;;2.53;1.00;;;;;;;-145.06;0.00;60892.56;4856124;28;20045;-86
2022/01/10 01:31:33;;;;;;;1.55;1.08;;;;;;;-145.06;0.00;60892.56;4868396;28;20120;-86
2022/01/10 01:34:14;;;;;;;1.45;1.00;;;;;;;-145.06;0.00;60892.56;4856010;28;20467;-86
2022/01/10 01:36:55;;;;;;;2.55;1.00;;;;;;;-145.06;0.00;60892.56;4858426;28;20065;-87
2022/01/10 01:39:35;;;;;;;1.35;0.75;;;;;;;-145.06;0.00;60892.56;4854592;28;20037;-89
2022/01/10 01:42:32;;;;;;;1.80;0.80;;;;;;;-145.06;0.00;60892.56;4855318;28;20888;-87
2022/01/10 01:45:12;;;;;;;1.48;0.70;;;;;;;-145.06;0.00;60892.56;4864768;28;20025;-87
2022/01/10 01:47:53;;;;;;;2.22;1.08;;;;;;;-145.06;0.00;60892.56;4836156;28;20026;-87
2022/01/10 01:50:32;;;;;;;2.00;1.23;;;;;;;-145.06;0.00;60892.56;4868304;28;20045;-86
2022/01/10 01:53:11;;;;;;;1.77;0.80;;;;;;;-145.06;0.00;60892.56;4853455;28;20585;-86
2022/01/10 01:55:50;;;;;;;2.50;0.90;;;;;;;-145.06;0.00;60892.56;4855268;28;20416;-87
2022/01/10 01:58:29;;;;;;;3.57;0.93;;;;;;;-145.06;0.00;60892.56;4855458;28;20448;-87
2022/01/10 02:01:09;;;;;;;1.02;0.93;;;;;;;-145.06;0.00;60892.56;4854818;28;20347;-87
2022/01/10 02:03:49;;;;;;;1.08;0.77;;;;;;;-145.06;0.00;60892.56;4856850;28;20045;-86
2022/01/10 02:06:28;;;;;;;;;;;;;;;-145.06;0.00;60892.56;4848466;28;20025;-87
2022/01/10 02:09:07;;;;;;;1.13;0.80;;;;;;;-145.06;0.00;60892.56;4854297;28;19913;-86
2022/01/10 02:11:47;;;;;;;1.65;0.80;;;;;;;-145.06;0.00;60892.56;4855135;28;20034;-86
2022/01/10 02:14:26;;;;;;;2.30;0.93;;;;;;;-145.06;0.00;60892.56;4868302;28;20029;-86
2022/01/10 02:17:05;;;;;;;2.05;0.85;;;;;;;-145.06;0.00;60892.56;4852477;28;20276;-87
2022/01/10 02:19:55;;;;;;;1.02;0.90;;;;;;;-145.06;0.00;60892.56;4854841;28;20033;-87
2022/01/10 02:22:38;;;;;;;1.00;0.65;;;;;;;-145.06;0.00;60892.56;4850497;28;20077;-86
2022/01/10 02:25:17;;;;;;;1.77;0.90;;;;;;;-145.06;0.00;60892.56;4856280;28;20371;-86
2022/01/10 02:27:56;;;;;;;2.17;0.70;;;;;;;-145.06;0.00;60892.56;4855500;28;20029;-87
2022/01/10 02:30:35;;;;;;;0.88;0.80;;;;;;;-145.06;0.00;60892.56;4849092;28;20053;-87
2022/01/10 02:33:14;;;;;;;2.30;1.00;;;;;;;-145.06;0.00;60892.56;4858975;28;20479;-87
2022/01/10 02:36:06;;;;;;;0.93;0.70;;;;;;;2.89;0.00;60892.56;4858765;28;20928;-87
2022/01/10 02:38:48;;;;;;;1.45;0.85;;;;;;;-145.06;0.00;60892.56;4849769;28;20276;-86
2022/01/10 02:41:30;;;;;;;2.33;1.10;;;;;;;-145.06;0.00;60892.56;4859030;28;20034;-86
2022/01/10 02:44:15;;;;;;;1.63;0.90;;;;;;;-145.06;0.00;60892.56;4862465;28;20478;-87
2022/01/10 02:46:54;;;;;;;2.15;1.05;;;;;;;-145.06;0.00;60892.56;4853408;28;20033;-86
2022/01/10 02:49:33;;;;;;;1.87;1.20;;;;;;;-145.06;0.00;60892.56;4854300;28;20068;-87
2022/01/10 02:52:12;;;;;;;2.17;1.17;;;;;;;-145.06;0.00;60892.56;4862854;28;20312;-87
2022/01/10 02:54:51;;;;;;;2.43;1.27;;;;;;;187.52;0.00;60892.56;4850795;28;20093;-87
2022/01/10 02:57:30;;;;;;;2.08;1.35;;;;;;;-145.06;0.00;60892.56;4845686;28;20292;-86
2022/01/10 03:00:19;;;;;;;2.60;1.63;;;;;;;187.52;0.00;60892.56;4852847;28;20387;-87
2022/01/10 03:02:59;;;;;;;2.38;1.42;;;;;;;187.52;0.00;60892.56;4852259;28;20068;-86
2022/01/10 03:05:38;;;;;;;3.13;1.40;;;;;;;-145.06;0.00;60892.56;4872088;28;20467;-87
2022/01/10 03:08:17;;;;;;;2.78;1.63;;;;;;;-145.06;0.00;60892.56;4853377;28;20420;-86
2022/01/10 03:10:56;;;;;;;2.60;1.58;;;;;;;-145.06;0.00;60892.56;4854198;28;20041;-86
2022/01/10 03:13:34;;;;;;;3.10;1.67;;;;;;;-145.06;0.00;60892.56;4850948;28;20030;-85
2022/01/10 03:16:13;;;;;;;3.10;1.70;;;;;;;-145.06;0.00;60892.56;4861487;28;20040;-87
2022/01/10 03:18:52;;;;;;;4.35;2.00;;;;;;;-145.06;0.00;60892.56;4852316;28;20029;-88
2022/01/10 03:21:31;;;;;;;4.65;1.85;;;;;;;-145.06;0.00;60892.56;4853688;28;20029;-87
2022/01/10 03:24:10;;;;;;;4.05;1.90;;;;;;;-145.06;0.00;60892.56;4853006;28;20037;-86
2022/01/10 03:26:49;;;;;;;2.83;1.50;;;;;;;-145.06;0.00;60892.56;4854712;28;20056;-86
2022/01/10 03:29:28;;;;;;;3.47;1.60;;;;;;;-145.06;0.00;60892.56;4853614;28;20261;-87
2022/01/10 03:32:08;;;;;;;3.42;1.65;;;;;;;1.75;0.00;60892.56;4853974;28;20046;-87
2022/01/10 03:34:46;;;;;;;4.63;1.95;;;;;;;-145.06;0.00;60892.56;4862155;28;20029;-87
2022/01/10 03:37:26;;;;;;;3.17;1.92;;;;;;;-145.06;0.00;60892.56;4849943;28;20037;-87
2022/01/10 03:40:06;;;;;;;4.05;1.83;;;;;;;-145.06;0.00;60892.56;4851124;28;20041;-87
2022/01/10 03:42:45;;;;;;;2.97;1.40;;;;;;;-145.06;0.00;60892.56;4857700;28;20499;-86
2022/01/10 03:45:24;;;;;;;2.40;1.40;;;;;;;-145.06;0.00;60892.56;4866118;28;20521;-86
2022/01/10 03:48:03;;;;;;;2.08;1.42;;;;;;;-145.06;0.00;60892.56;4871373;28;20308;-86
2022/01/10 03:50:43;;;;;;;1.55;1.05;;;;;;;-145.06;0.00;60892.56;4857998;28;20627;-86
2022/01/10 03:53:23;;;;;;;2.97;1.52;;;;;;;-145.06;0.00;60892.56;4852153;28;20037;-86
2022/01/10 03:56:02;;;;;;;1.98;1.42;;;;;;;187.52;0.00;60892.56;4855862;28;20045;-85
2022/01/10 03:58:41;;;;;;;1.38;1.00;;;;;;;-145.06;0.00;60892.56;4857121;28;20034;-86
2022/01/10 04:01:20;;;;;;;2.38;1.33;;;;;;;-145.06;0.00;60892.56;4863664;28;20030;-86
2022/01/10 04:03:59;;;;;;;1.40;1.00;;;;;;;-145.06;0.00;60892.56;4855891;28;20037;-86
2022/01/10 04:06:38;;;;;;;2.40;1.30;;;;;;;2.89;0.00;60892.56;4850577;28;20037;-86
2022/01/10 04:09:21;;;;;;;1.30;1.02;;;;;;;187.52;0.00;60892.56;4857121;28;20779;-87
2022/01/10 04:12:00;;;;;;;1.20;1.10;;;;;;;-145.06;0.00;60892.56;4854738;28;20274;-87
2022/01/10 04:14:39;;;;;;;1.60;0.80;;;;;;;-145.06;0.00;60892.56;4863198;28;20029;-86
2022/01/10 04:17:18;;;;;;;1.65;1.20;;;;;;;-145.06;0.00;60892.56;4857722;28;20037;-86
2022/01/10 04:19:57;;;;;;;2.58;1.27;;;;;;;-145.06;0.00;60892.56;4857264;28;20033;-85
2022/01/10 04:22:36;;;;;;;3.13;1.17;;;;;;;-145.06;0.00;60892.56;4859096;28;20109;-85
2022/01/10 04:25:15;;;;;;;2.05;1.02;;;;;;;-145.06;0.00;60892.56;4863388;28;20437;-86
2022/01/10 04:27:54;;;;;;;1.40;1.17;;;;;;;10.68;0.00;60892.56;4874705;28;20165;-86
2022/01/10 04:30:33;;;;;;;2.72;1.17;;;;;;;-145.06;0.00;60892.56;4856671;28;20795;-86
2022/01/10 04:33:17;;;;;;;2.25;1.20;;;;;;;-145.06;0.00;60892.56;4858040;28;20069;-86
2022/01/10 04:35:57;;;;;;;1.83;1.20;;;;;;;-145.06;0.00;60892.56;4854673;28;20041;-86
2022/01/10 04:38:36;;;;;;;3.05;1.38;;;;;;;-145.06;0.00;60892.56;4856685;28;20037;-86
2022/01/10 04:41:15;;;;;;;1.77;1.23;;;;;;;-145.06;0.00;60892.56;4858214;28;20519;-88
2022/01/10 04:43:54;;;;;;;2.38;1.30;;;;;;;-145.06;0.00;60892.56;4870233;28;20045;-86
2022/01/10 04:46:33;;;;;;;3.05;1.50;;;;;;;-145.06;0.00;60892.56;4868869;28;20739;-86
2022/01/10 04:49:21;;;;;;;2.08;1.23;;;;;;;-145.06;0.00;60892.56;4855422;28;20060;-86
2022/01/10 04:52:00;;;;;;;1.85;1.27;;;;;;;-145.06;0.00;60892.56;4852281;28;20056;-86
2022/01/10 04:54:39;;;;;;;1.13;1.03;;;;;;;-145.06;0.00;60892.56;4856626;28;20029;-86
2022/01/10 04:57:18;;;;;;;2.60;1.27;;;;;;;187.52;0.00;60892.56;4855846;28;20284;-87
2022/01/10 04:59:57;;;;;;;1.07;1.00;;;;;;;-145.06;0.00;60892.56;4851555;28;20817;-86
2022/01/10 05:02:37;;;;;;;1.45;1.15;;;;;;;-145.06;0.00;60892.56;4855578;28;20272;-85
2022/01/10 05:05:15;;;;;;;1.80;1.05;;;;;;;-145.06;0.00;60892.56;4858702;28;20360;-86
2022/01/10 05:07:54;;;;;;;2.40;1.47;;;;;;;2.89;0.00;60892.56;4854397;28;20104;-86
2022/01/10 05:10:33;;;;;;;1.50;1.13;;;;;;;-145.06;0.00;60892.56;4852903;28;20033;-86
2022/01/10 05:13:12;;;;;;;1.83;1.17;;;;;;;-145.06;0.00;60892.56;4856227;28;20268;-85
2022/01/10 05:15:52;;;;;;;1.75;1.08;;;;;;;-145.06;0.00;60892.56;4856143;28;20041;-87
2022/01/10 05:18:31;;;;;;;1.45;1.30;;;;;;;187.52;0.00;60892.56;4856893;28;20033;-85
2022/01/10 05:21:12;;;;;;;3.03;1.20;;;;;;;21.08;0.00;60892.56;4869967;28;20962;-86
2022/01/10 05:23:51;;;;;;;1.83;1.00;;;;;;;187.52;0.00;60892.56;4855704;28;20032;-86
2022/01/10 05:26:30;;;;;;;2.25;1.20;;;;;;;1.25;0.00;60892.56;4859474;28;20028;-87
2022/01/10 05:29:09;;;;;;;2.70;1.30;;;;;;;-145.06;0.00;60892.56;4853658;28;20674;-86
2022/01/10 05:31:48;;;;;;;2.65;1.40;;;;;;;1.28;0.00;60892.56;4855088;28;20037;-86
2022/01/10 05:34:27;;;;;;;2.92;1.50;;;;;;;5.49;0.00;60892.56;4867410;28;20033;-86
2022/01/10 05:37:06;;;;;;;1.47;1.20;;;;;;;-145.06;0.00;60892.56;4869200;28;20034;-87
2022/01/10 05:39:45;;;;;;;2.33;1.17;;;;;;;-145.06;0.00;60892.56;4850052;28;20404;-86
2022/01/10 05:42:24;;;;;;;2.00;1.45;;;;;;;-145.06;0.00;60892.56;4854414;28;20097;-86
2022/01/10 05:45:03;;;;;;;2.92;1.58;;;;;;;1.39;0.00;60892.56;4852252;28;20045;-87
2022/01/10 05:47:46;;;;;;;2.88;1.25;;;;;;;-145.06;0.00;60892.56;4859080;28;20479;-87
2022/01/10 05:50:34;;;;;;;1.23;1.10;;;;;;;-145.06;0.00;60892.56;4845418;28;20165;-87
2022/01/10 05:53:13;;;;;;;2.13;1.25;;;;;;;-145.06;0.00;60892.56;4858180;28;20030;-86
2022/01/10 05:55:53;;;;;;;2.03;1.38;;;;;;;-145.06;0.00;60892.56;4853154;28;20037;-87
2022/01/10 05:58:32;;;;;;;1.58;1.30;;;;;;;-145.06;0.00;60892.56;4867104;28;20384;-87
2022/01/10 06:01:11;;;;;;;3.00;1.30;;;;;;;-145.06;0.00;60892.56;4856323;28;20501;-87
2022/01/10 06:03:50;;;;;;;2.17;1.25;;;;;;;1.53;0.00;60892.56;4852887;28;20454;-85
2022/01/10 06:06:29;;;;;;;2.20;1.40;;;;;;;-145.06;0.00;60892.56;4851674;28;20029;-86
2022/01/10 06:09:08;;;;;;;3.00;1.53;;;;;;;-145.06;0.00;60892.56;4852391;28;20033;-86
2022/01/10 06:11:47;;;;;;;3.38;1.55;;;;;;;-145.06;0.00;60892.56;4849296;28;20037;-88
2022/01/10 06:14:26;;;;;;;2.20;1.52;;;;;;;-145.06;0.00;60892.56;4846221;28;20037;-86
2022/01/10 06:17:05;;;;;;;4.10;1.55;;;;;;;-145.06;0.00;60892.56;4851678;28;20025;-86
2022/01/10 06:19:44;;;;;;;2.47;1.67;;;;;;;-145.06;0.00;60892.56;4853463;28;20479;-86
2022/01/10 06:22:23;;;;;;;2.60;2.00;;;;;;;-145.06;0.00;60892.56;4854059;28;20049;-87
2022/01/10 06:25:03;;;;;;;3.93;2.07;;;;;;;-145.06;0.00;60892.56;4852170;28;20306;-86
2022/01/10 06:27:42;;;;;;;4.40;2.08;;;;;;;-145.06;0.00;60892.56;4849962;28;20756;-85
2022/01/10 06:30:21;;;;;;;5.40;2.63;;;;;;;-145.06;0.00;60892.56;4869944;28;20033;-86
2022/01/10 06:33:01;;;;;;;3.88;2.53;;;;;;;-145.06;0.00;60892.56;4847893;28;20744;-86
2022/01/10 06:35:40;;;;;;;4.05;2.47;;;;;;;-145.06;0.00;60892.56;4851303;28;20060;-85
2022/01/10 06:38:19;;;;;;;4.13;2.42;;;;;;;-145.06;0.00;60892.56;4865500;28;20723;-89
2022/01/10 06:40:58;;;;;;;3.05;2.13;;;;;;;-145.06;0.00;60892.56;4864801;28;20045;-86
2022/01/10 06:43:37;;;;;;;3.65;2.13;;;;;;;-145.06;0.00;60892.56;4853570;28;20029;-87
2022/01/10 06:46:16;;;;;;;3.78;2.20;;;;;;;-145.06;0.00;60892.56;4859417;28;20045;-87
2022/01/10 06:48:55;;;;;;;4.13;2.35;;;;;;;-145.06;0.00;60892.56;4861384;28;20041;-87
2022/01/10 06:51:34;;;;;;;3.17;2.20;;;;;;;-145.06;0.00;60892.56;4844940;28;20041;-86
2022/01/10 06:54:13;;;;;;;3.42;2.10;;;;;;;-145.06;0.00;60892.56;4849387;28;20271;-85
2022/01/10 06:56:53;;;;;;;4.50;2.10;;;;;;;-145.06;0.00;60892.56;4849981;28;20076;-86
2022/01/10 06:59:32;;;;;;;3.60;1.90;;;;;;;-145.06;0.00;60892.56;4846427;28;20112;-88
2022/01/10 07:02:11;;;;;;;2.70;1.92;;;;;;;-145.06;0.00;60892.56;4849917;28;20029;-87
2022/01/10 07:04:50;;;;;;;3.03;1.93;;;;;;;-145.06;0.00;60892.56;4850865;28;20519;-87
2022/01/10 07:07:29;;;;;;;2.73;1.63;;;;;;;-145.06;0.00;60892.56;4859505;28;20037;-87
2022/01/10 07:10:08;;;;;;;2.27;1.70;;;;;;;-145.06;0.00;60892.56;4851633;28;20268;-87
2022/01/10 07:12:47;;;;;;;3.05;1.85;;;;;;;-145.06;0.00;60892.56;4851725;28;20037;-86
2022/01/10 07:15:27;;;;;;;2.50;1.65;;;;;;;-145.06;0.00;60892.56;4876686;28;20037;-88
2022/01/10 07:18:06;;;;;;;2.08;1.55;;;;;;;-145.06;0.00;60892.56;4853497;28;20033;-87
2022/01/10 07:20:45;;;;;;;2.23;1.70;;;;;;;-145.06;0.00;60892.56;4854459;28;20034;-88
2022/01/10 07:23:23;;;;;;;2.20;1.70;;;;;;;-145.06;0.00;60892.56;4853721;28;20037;-87
2022/01/10 07:26:03;;;;;;;4.43;2.10;;;;;;;-145.06;0.00;60892.56;4853518;28;20037;-87
2022/01/10 07:28:42;;;;;;;3.90;2.08;;;;;;;-145.06;0.00;60892.56;4867058;28;20029;-87
2022/01/10 07:31:21;;;;;;;2.88;2.03;;;;;;;-145.06;0.00;60892.56;4855994;28;20033;-86
2022/01/10 07:34:01;;;;;;;2.77;2.00;;;;;;;-145.06;0.00;60892.56;4857063;28;20037;-87
2022/01/10 07:36:40;;;;;;;2.85;1.83;;;;;;;-145.06;0.00;60892.56;4853810;28;20033;-88
2022/01/10 07:39:19;;;;;;;3.30;2.05;;;;;;;-145.06;0.00;60892.56;4864678;28;20120;-86
2022/01/10 07:41:58;;;;;;;2.88;1.83;;;;;;;-145.06;0.00;60892.56;4862426;28;20029;-87
2022/01/10 07:44:37;;;;;;;2.78;1.60;;;;;;;-145.06;0.00;60892.56;4856659;28;20049;-87
2022/01/10 07:47:17;;;;;;;3.28;1.90;;;;;;;-145.06;0.00;60892.56;4853281;28;20474;-86
2022/01/10 07:49:56;;;;;;;2.38;1.75;;;;;;;-145.06;0.00;60892.56;4850464;28;20041;-87
2022/01/10 07:52:35;;;;;;;14.68;2.38;;;;;;;-145.06;0.00;60892.56;4850922;28;20042;-87
2022/01/10 07:55:14;;;;;;;4.23;2.17;;;;;;;-145.06;0.00;60892.56;4846345;28;20108;-87
2022/01/10 07:57:53;;;;;;;4.88;2.00;;;;;;;-145.06;0.00;60892.56;4849969;28;20397;-88
2022/01/10 08:00:32;;;;;;;6.47;1.80;;;;;;;-145.06;0.00;60892.56;4850769;28;20041;-86
2022/01/10 08:03:11;;;;;;;5.87;2.07;;;;;;;-145.06;0.00;60892.56;4852204;28;20276;-88
2022/01/10 08:05:50;;;;;;;3.17;2.23;;;;;;;-145.06;0.00;60892.56;4855695;28;20034;-88
2022/01/10 08:08:29;;;;;;;3.50;2.27;;;;;;;-145.06;0.00;60892.56;4849140;28;21037;-87
2022/01/10 08:11:08;;;;;;;4.43;1.92;;;;;;;-145.06;0.00;60892.56;4863515;28;20308;-88
2022/01/10 08:13:47;;;;;;;2.80;1.90;;;;;;;-145.06;0.00;60892.56;4851596;28;20041;-87
2022/01/10 08:16:27;;;;;;;2.67;1.80;;;;;;;-145.06;0.00;60892.56;4845931;28;20377;-86
2022/01/10 08:19:06;;;;;;;2.88;1.73;;;;;;;-145.06;0.00;60892.56;4856378;28;20379;-87
2022/01/10 08:21:45;;;;;;;2.90;1.80;;;;;;;-145.06;0.00;60892.56;4853007;28;20030;-86
2022/01/10 08:24:24;;;;;;;2.70;1.90;;;;;;;2.04;0.00;60892.56;4868580;28;20045;-86
2022/01/10 08:27:04;;;;;;;2.92;1.73;;;;;;;-145.06;0.00;60892.56;4853732;28;20022;-86
2022/01/10 08:29:43;;;;;;;2.92;1.83;;;;;;;-145.06;0.00;60892.56;4851821;28;20774;-87
2022/01/10 08:32:22;;;;;;;3.53;1.67;;;;;;;-145.06;0.00;60892.56;4851001;28;20033;-85
2022/01/10 08:35:02;;;;;;;2.10;1.75;;;;;;;-145.06;0.00;60892.56;4856975;28;20487;-87
2022/01/10 08:37:41;;;;;;;2.78;1.80;;;;;;;-145.06;0.00;60892.56;4851791;28;20042;-86
2022/01/10 08:40:20;;;;;;;2.78;1.77;;;;;;;-145.06;0.00;60892.56;4863690;28;20041;-87
2022/01/10 08:43:02;;;;;;;6.10;1.85;;;;;;;-145.06;0.00;60892.56;4854349;28;21847;-86
2022/01/10 08:45:40;;;;;;;2.35;1.77;;;;;;;-145.06;0.00;60892.56;4872914;28;20040;-87
2022/01/10 08:48:19;;;;;;;2.65;1.88;;;;;;;-145.06;0.00;60892.56;4854787;28;20025;-87
2022/01/10 08:50:58;;;;;;;2.72;1.70;;;;;;;-145.06;0.00;60892.56;4867236;28;20061;-87
2022/01/10 08:53:37;;;;;;;2.95;1.90;;;;;;;-145.06;0.00;60892.56;4855309;28;20482;-87
2022/01/10 08:56:16;;;;;;;4.38;2.15;;;;;;;-145.06;0.00;60892.56;4856523;28;20033;-86
2022/01/10 08:58:55;;;;;;;2.72;2.15;;;;;;;-145.06;0.00;60892.56;4855759;28;20037;-85
2022/01/10 09:01:34;;;;;;;4.43;2.83;;;;;;;-145.06;0.00;60892.56;4852719;28;20030;-85
2022/01/10 09:04:18;;;;;;;5.80;2.67;;;;;;;187.52;0.00;60892.56;4855273;28;20573;-87
2022/01/10 09:06:58;;;;;;;4.18;2.60;;;;;;;-145.06;0.00;60892.56;4854272;28;20034;-86
2022/01/10 09:09:37;;;;;;;3.70;2.15;;;;;;;-145.06;0.00;60892.56;4852651;28;20037;-87
2022/01/10 09:12:17;;;;;;;4.78;2.60;;;;;;;-145.06;0.00;60892.56;4857662;28;20029;-85
2022/01/10 09:14:56;;;;;;;4.00;2.58;;;;;;;-145.06;0.00;60892.56;4855760;28;20037;-86
2022/01/10 09:17:35;;;;;;;4.07;2.55;;;;;;;-145.06;0.00;60892.56;4853379;28;20025;-86
2022/01/10 09:20:14;;;;;;;3.50;2.45;;;;;;;-145.06;0.00;60892.56;4851522;28;20364;-86
2022/01/10 09:22:53;;;;;;;4.23;2.40;;;;;;;-145.06;0.00;60892.56;4852574;28;20034;-86
2022/01/10 09:25:32;;;;;;;3.43;2.33;;;;;;;-145.06;0.00;60892.56;4851168;28;20025;-85
2022/01/10 09:28:11;;;;;;;4.20;2.58;;;;;;;-145.06;0.00;60892.56;4852886;28;20113;-86
2022/01/10 09:30:50;;;;;;;4.57;2.63;;;;;;;-145.06;0.00;60892.56;4862517;28;20030;-84
2022/01/10 09:33:29;;;;;;;3.83;2.10;;;;;;;2.89;0.00;60892.56;4856553;28;20036;-87
2022/01/10 09:36:08;;;;;;;2.50;2.03;;;;;;;187.52;0.00;60892.56;4863275;28;20292;-87
2022/01/10 09:38:47;;;;;;;3.37;2.07;;;;;;;-145.06;0.00;60892.56;4855915;28;20768;-86
2022/01/10 09:41:26;;;;;;;2.53;1.70;;;;;;;-145.06;0.00;60892.56;4863089;28;20112;-85
2022/01/10 09:44:09;;;;;;;3.50;2.08;;;;;;;21.08;0.00;60892.56;4853097;28;20041;-87
2022/01/10 09:46:48;;;;;;;3.45;2.53;;;;;;;10.68;0.00;60892.56;4862869;28;20360;-86
2022/01/10 09:49:27;;;;;;;2.50;1.83;;;;;;;-145.06;0.00;60892.56;4854810;28;20033;-86
2022/01/10 09:52:06;;;;;;;4.10;2.42;;;;;;;-145.06;0.00;60892.56;4854195;28;20037;-87
2022/01/10 09:54:45;;;;;;;4.10;2.00;;;;;;;-145.06;0.00;60892.56;4852417;28;20033;-84
2022/01/10 09:57:24;;;;;;;3.23;2.23;;;;;;;-145.06;0.00;60892.56;4868195;28;20033;-87
2022/01/10 10:00:05;;;;;;;3.72;2.45;;;;;;;-145.06;0.00;60892.56;4850190;28;20717;-87
2022/01/10 10:02:48;;;;;;;3.90;2.30;;;;;;;-145.06;0.00;60892.56;4853023;28;20033;-86
2022/01/10 10:05:27;;;;;;;3.53;2.65;;;;;;;21.08;0.00;60892.56;4852985;28;20064;-86
2022/01/10 10:08:07;;;;;;;4.68;2.72;;;;;;;2.72;0.00;60892.56;4862256;28;20432;-86
2022/01/10 10:10:47;;;;;;;2.33;1.63;;;;;;;-145.06;0.00;60892.56;4861960;28;20029;-87
2022/01/10 10:13:26;;;;;;;;;;;;;;;-145.06;0.00;60892.56;4858776;28;20057;-86
2022/01/10 10:16:12;;;;;;;2.15;1.70;;;;;;;-145.06;0.00;60892.56;4857079;28;19917;-87
2022/01/10 10:18:51;;;;;;;3.22;1.95;;;;;;;-145.06;0.00;60892.56;4854789;28;20041;-88
2022/01/10 10:21:32;;;;;;;2.17;1.77;;;;;;;-145.06;0.00;60892.56;4864487;28;20040;-88
2022/01/10 10:24:12;;;;;;;2.38;1.85;;;;;;;-145.06;0.00;60892.56;4853225;28;20038;-86
2022/01/10 10:26:51;;;;;;;3.83;1.95;;;;;;;-145.06;0.00;60892.56;4853424;28;20045;-87
2022/01/10 10:29:31;;;;;;;;;;;;;;;-145.06;0.00;60892.56;4865872;28;20120;-86
2022/01/10 10:32:11;;;;;;;2.27;1.60;;;;;;;187.52;0.00;60892.56;4854153;28;19917;-86
2022/01/10 10:34:56;;;;;;;2.13;1.42;;;;;;;4.19;0.00;60892.56;4854959;28;20497;-85
2022/01/10 10:37:40;;;;;;;2.78;2.08;;;;;;;-145.06;0.00;60892.56;4849504;28;20029;-86
2022/01/10 10:40:19;;;;;;;2.75;1.70;;;;;;;-145.06;0.00;60892.56;4852608;28;20037;-86
2022/01/10 10:42:58;;;;;;;3.38;2.20;;;;;;;-145.06;0.00;60892.56;4859175;28;20124;-87
2022/01/10 10:45:38;;;;;;;2.30;1.87;;;;;;;-145.06;0.00;60892.56;4854295;28;20033;-88
2022/01/10 10:48:17;;;;;;;;;;;;;;;-145.06;0.00;60892.56;4863735;28;20268;-87
2022/01/10 10:50:58;;;;;;;2.90;1.70;;;;;;;-145.06;0.00;60892.56;4857743;28;19912;-87
2022/01/10 10:53:39;;;;;;;2.78;1.83;;;;;;;-145.06;0.00;60892.56;4850553;28;20634;-84
2022/01/10 10:56:19;;;;;;;2.53;1.70;;;;;;;-145.06;0.00;60892.56;4853541;28;20037;-85
2022/01/10 10:58:59;;;;;;;3.17;1.92;;;;;;;-145.06;0.00;60892.56;4849304;28;20384;-86
2022/01/10 11:01:40;;;;;;;3.28;1.75;;;;;;;-145.06;0.00;60892.56;4856483;28;20029;-85
2022/01/10 11:04:19;;;;;;;3.33;1.77;;;;;;;-145.06;0.00;60892.56;4852637;28;20041;-85
2022/01/10 11:06:58;;;;;;;2.47;1.60;;;;;;;-145.06;0.00;60892.56;4850805;28;20037;-84
2022/01/10 11:09:37;;;;;;;;;;;;;;;10.68;0.00;60892.56;4852054;28;20041;-85
2022/01/10 11:12:21;;;;;;;3.03;1.88;;;;;;;-145.06;0.00;60892.56;4858164;28;20676;-85
2022/01/10 11:15:01;;;;;;;1.60;1.40;;;;;;;-145.06;0.00;60892.56;4846032;28;20050;-84
2022/01/10 11:17:41;;;;;;;3.28;1.88;;;;;;;-145.06;0.00;60892.56;4875113;28;20388;-84
2022/01/10 11:20:21;;;;;;;;;;;;;;;-145.06;0.00;60892.56;4858827;28;20037;-86
2022/01/10 11:23:01;;;;;;;;;;;;;;;-145.06;0.00;60892.56;4857906;28;19917;-85
2022/01/10 11:25:42;;;;;;;2.15;1.50;;;;;;;-145.06;0.00;60892.56;4867332;28;19948;-85
2022/01/10 11:28:23;;;;;;;1.95;1.50;;;;;;;-145.06;0.00;60892.56;4855887;28;20029;-84
2022/01/10 11:31:04;;;;;;;2.50;1.52;;;;;;;-145.06;0.00;60892.56;4853661;28;20030;-84
2022/01/10 11:33:43;;;;;;;2.63;1.65;;;;;;;-145.06;0.00;60892.56;4856510;28;20037;-85
2022/01/10 11:36:25;;;;;;;3.58;1.92;;;;;;;-145.06;0.00;60892.56;4852687;28;20033;-85
2022/01/10 11:39:11;;;;;;;2.92;1.77;;;;;;;-145.06;0.00;60892.56;4853362;28;20037;-85
2022/01/10 11:41:49;;;;;;;3.50;2.08;;;;;;;-145.06;0.00;60892.56;4858327;28;20116;-86
2022/01/10 11:44:30;;;;;;;3.13;2.20;;;;;;;6.79;0.00;60892.56;4856903;28;20041;-85
2022/01/10 11:47:09;;;;;;;2.90;1.80;;;;;;;-145.06;0.00;60892.56;4853326;28;20037;-85
2022/01/10 11:49:48;;;;;;;3.35;2.05;;;;;;;-145.06;0.00;60892.56;4859451;28;20245;-87
2022/01/10 11:52:27;;;;;;;4.40;1.90;;;;;;;6.76;0.00;60892.56;4855351;28;20120;-85
2022/01/10 11:55:07;;;;;;;2.83;1.90;;;;;;;-145.06;0.00;60892.56;4855215;28;20120;-86
2022/01/10 11:57:47;;;;;;;2.85;1.80;;;;;;;-145.06;0.00;60892.56;4855580;28;20029;-86
2022/01/10 12:00:34;;;;;;;;;;;;;;;-145.06;0.00;60892.56;4870882;28;20029;-86
2022/01/10 12:03:13;;;;;;;3.67;2.08;;;;;;;-145.06;0.00;60892.56;4869252;28;19917;-87
2022/01/10 12:05:52;;;;;;;3.40;1.90;;;;;;;-145.06;0.00;60892.56;4855821;28;20026;-85
2022/01/10 12:08:30;;;;;;;3.40;2.20;;;;;;;-145.06;0.00;60892.56;4861463;28;20439;-87
2022/01/10 12:11:12;;;;;;;3.22;2.20;;;;;;;21.08;0.00;60892.56;4854672;28;20518;-86
2022/01/10 12:13:53;;;;;;;3.67;2.22;;;;;;;-145.06;0.00;60892.56;4856514;28;20120;-86
2022/01/10 12:16:34;;;;;;;3.30;2.38;;;;;;;187.52;0.00;60892.56;4852151;28;20041;-87
2022/01/10 12:19:13;;;;;;;2.95;1.90;;;;;;;-145.06;0.00;60892.56;4860957;28;20041;-86
2022/01/10 12:21:53;;;;;;;4.77;2.10;;;;;;;-145.06;0.00;60892.56;4854935;28;20045;-85
2022/01/10 12:24:37;;;;;;;4.22;2.42;;;;;;;-145.06;0.00;60892.56;4849923;28;20355;-86
2022/01/10 12:27:18;;;;;;;4.05;2.50;;;;;;;-145.06;0.00;60892.56;4855533;28;20021;-85
2022/01/10 12:29:57;;;;;;;4.70;2.60;;;;;;;-145.06;0.00;60892.56;4856182;28;20041;-86
2022/01/10 12:32:38;;;;;;;3.40;2.10;;;;;;;-145.06;0.00;60892.56;4841014;28;20033;-87
2022/01/10 12:35:17;;;;;;;2.45;1.73;;;;;;;-145.06;0.00;60892.56;4862724;28;20123;-86
2022/01/10 12:37:57;;;;;;;2.80;1.65;;;;;;;-145.06;0.00;60892.56;4860260;28;20387;-86